Time;durP1;ratioP1;P1;durP2;ratioP2;P2;SDS_P1;SDS_P2;PMS_P1;PMS_P2;Temp;Humidity;BMP_temperature;BMP_pressure;BME280_temperature;BME280_humidity;BME280_pressure;Samples;Min_cycle;Max_cycle;Signal;HPM_P1;HPM_P2
2022/02/01 00:01:37;;;;;;;;;;;4.20;99.90;;;;;;5017654;28;20435;-75
2022/02/01 00:04:07;;;;;;;;;;;4.20;99.90;;;;;;5019769;28;20007;-75
2022/02/01 00:06:49;;;;;;;;;;;4.20;99.90;;;;;;5026015;28;19926;-76
2022/02/01 00:09:28;;;;;;;;;;;4.20;99.90;;;;;;5025000;28;19973;-75
2022/02/01 00:12:08;;;;;;;;;;;4.20;99.90;;;;;;5025937;28;20344;-74
2022/02/01 00:14:52;;;;;;;;;;;4.20;99.90;;;;;;5020409;28;19929;-74
2022/02/01 00:17:47;;;;;;;;;;;4.10;99.90;;;;;;5022415;28;20096;-74
2022/02/01 00:20:24;;;;;;;;;;;4.10;99.90;;;;;;5013584;28;20024;-74
2022/02/01 00:34:03;;;;;;;;;;;4.10;99.90;;;;;;5018944;28;20376;-74
2022/02/01 00:36:34;;;;;;;;;;;4.00;99.90;;;;;;5011551;28;19941;-75
2022/02/01 00:39:03;;;;;;;;;;;4.00;99.90;;;;;;5016006;28;20024;-75
2022/02/01 00:41:32;;;;;;;;;;;4.00;99.90;;;;;;5019266;28;19932;-76
2022/02/01 00:43:59;;;;;;;;;;;4.00;99.90;;;;;;5020320;28;19964;-75
2022/02/01 00:46:26;;;;;;;;;;;4.00;99.90;;;;;;5015907;28;19931;-75
2022/02/01 00:48:54;;;;;;;;;;;3.90;99.90;;;;;;5014850;28;20312;-75
2022/02/01 00:51:21;;;;;;;;;;;3.90;99.90;;;;;;5019912;28;19931;-75
2022/02/01 00:53:48;;;;;;;;;;;3.90;99.90;;;;;;5019516;28;20341;-75
2022/02/01 00:56:15;;;;;;;;;;;3.90;99.90;;;;;;5011657;28;20076;-74
2022/02/01 00:58:42;;;;;;;;;;;3.70;99.90;;;;;;5012708;28;19947;-75
2022/02/01 01:01:09;;;;;;;;;;;3.60;99.90;;;;;;5015932;28;19925;-75
2022/02/01 01:03:36;;;;;;;;;;;3.50;99.90;;;;;;5011438;28;19936;-75
2022/02/01 01:06:04;;;;;;;;;;;3.50;99.90;;;;;;5016411;28;20344;-74
2022/02/01 01:08:31;;;;;;;;;;;3.40;99.90;;;;;;5017634;28;19929;-75
2022/02/01 01:10:57;;;;;;;;;;;3.30;99.90;;;;;;5017886;28;19932;-75
2022/02/01 01:13:50;;;;;;;;;;;3.30;99.90;;;;;;5014601;28;19984;-75
2022/02/01 01:16:34;;;;;;;;;;;3.20;99.90;;;;;;5013986;28;20418;-73
2022/02/01 01:43:57;;;;;;;;;;;2.90;99.90;;;;;;4956222;28;19965;-73
2022/02/01 01:54:40;;;;;;;;;;;3.00;99.90;;;;;;5019835;28;19933;-74
2022/02/01 01:57:07;;;;;;;;;;;3.00;99.90;;;;;;5021356;28;19933;-73
2022/02/01 01:59:33;;;;;;;;;;;3.00;99.90;;;;;;5023013;28;19931;-73
2022/02/01 02:02:00;;;;;;;;;;;3.00;99.90;;;;;;5021297;28;20012;-73
2022/02/01 02:04:27;;;;;;;;;;;3.00;99.90;;;;;;5020747;28;19927;-73
2022/02/01 02:06:53;;;;;;;;;;;3.10;99.90;;;;;;5020315;28;20376;-73
2022/02/01 02:09:20;;;;;;;;;;;3.00;99.90;;;;;;5019407;28;20537;-74
2022/02/01 02:11:53;;;;;;;;;;;3.00;99.90;;;;;;5022000;28;19925;-74
2022/02/01 02:14:20;;;;;;;;;;;3.00;99.90;;;;;;5021888;28;19933;-74
2022/02/01 02:16:48;;;;;;;;;;;3.10;99.90;;;;;;5018773;28;20410;-74
2022/02/01 02:19:15;;;;;;;;;;;3.10;99.90;;;;;;5026890;28;20312;-74
2022/02/01 02:21:45;;;;;;;;;;;3.20;99.90;;;;;;5022959;28;19940;-73
2022/02/01 02:24:12;;;;;;;;;;;3.20;99.90;;;;;;5028895;28;19932;-73
2022/02/01 02:26:39;;;;;;;;;;;3.20;99.90;;;;;;5019588;28;19933;-74
2022/02/01 02:29:06;;;;;;;;;;;3.20;99.90;;;;;;5025170;28;19929;-74
2022/02/01 02:31:33;;;;;;;;;;;3.30;99.90;;;;;;5019070;28;19925;-74
2022/02/01 02:34:05;;;;;;;;;;;3.20;99.90;;;;;;5023163;28;20384;-74
2022/02/01 02:36:35;;;;;;;;;;;3.30;99.90;;;;;;5030353;28;19933;-74
2022/02/01 02:39:09;;;;;;;;;;;3.20;99.90;;;;;;5025607;28;19925;-78
2022/02/01 02:41:38;;;;;;;;;;;3.20;99.90;;;;;;5022303;28;19975;-74
2022/02/01 02:46:50;;;;;;;;;;;3.30;99.90;;;;;;5027068;28;19991;-74
2022/02/01 02:49:18;;;;;;;;;;;3.30;99.90;;;;;;5021605;28;19931;-74
2022/02/01 02:51:44;;;;;;;;;;;3.30;99.90;;;;;;5025403;28;19925;-74
2022/02/01 02:54:13;;;;;;;;;;;3.40;99.90;;;;;;5020283;28;19956;-74
2022/02/01 02:56:43;;;;;;;;;;;3.40;99.90;;;;;;5025425;28;19932;-74
2022/02/01 02:59:10;;;;;;;;;;;3.40;99.90;;;;;;5020291;28;19937;-74
2022/02/01 03:01:37;;;;;;;;;;;3.50;99.90;;;;;;5024398;28;19988;-74
2022/02/01 03:04:04;;;;;;;;;;;3.50;99.90;;;;;;5019533;28;19933;-73
2022/02/01 03:06:30;;;;;;;;;;;3.50;99.90;;;;;;5028817;28;19925;-74
2022/02/01 03:08:57;;;;;;;;;;;3.50;99.90;;;;;;5024279;28;19925;-75
2022/02/01 03:11:25;;;;;;;;;;;3.50;99.90;;;;;;5025379;28;19925;-73
2022/02/01 03:13:55;;;;;;;;;;;3.50;99.90;;;;;;5020911;28;19925;-73
2022/02/01 03:16:48;;;;;;;;;;;3.60;99.90;;;;;;5019626;28;20685;-73
2022/02/01 03:21:58;;;;;;;;;;;3.60;99.90;;;;;;5026492;28;19932;-74
2022/02/01 03:24:25;;;;;;;;;;;3.60;99.90;;;;;;5021038;28;19932;-74
2022/02/01 03:26:53;;;;;;;;;;;3.60;99.90;;;;;;5023851;28;20329;-74
2022/02/01 03:29:20;;;;;;;;;;;3.60;99.90;;;;;;5019137;28;19947;-75
2022/02/01 03:31:46;;;;;;;;;;;3.60;99.90;;;;;;5020286;28;20420;-74
2022/02/01 03:34:13;;;;;;;;;;;3.60;99.90;;;;;;5025346;28;19935;-74
2022/02/01 03:36:40;;;;;;;;;;;3.70;99.90;;;;;;5019503;28;19931;-74
2022/02/01 03:39:06;;;;;;;;;;;3.70;99.90;;;;;;5019902;28;20445;-75
2022/02/01 03:41:33;;;;;;;;;;;3.70;99.90;;;;;;5020665;28;19928;-75
2022/02/01 03:44:03;;;;;;;;;;;3.70;99.90;;;;;;5024839;28;19940;-75
2022/02/01 03:46:30;;;;;;;;;;;3.70;99.90;;;;;;5021852;28;20423;-74
2022/02/01 03:48:57;;;;;;;;;;;3.70;99.90;;;;;;5018706;28;19925;-74
2022/02/01 03:51:23;;;;;;;;;;;3.80;99.90;;;;;;5020608;28;20384;-74
2022/02/01 03:53:50;;;;;;;;;;;3.80;99.90;;;;;;5022754;28;19925;-74
2022/02/01 03:56:16;;;;;;;;;;;3.90;99.90;;;;;;5022008;28;19933;-75
2022/02/01 03:58:43;;;;;;;;;;;3.90;99.90;;;;;;5020341;28;20394;-74
2022/02/01 04:01:11;;;;;;;;;;;3.90;99.90;;;;;;5017560;28;19925;-74
2022/02/01 04:03:38;;;;;;;;;;;3.90;99.90;;;;;;5019090;28;19933;-74
2022/02/01 04:06:04;;;;;;;;;;;3.90;99.90;;;;;;5019228;28;20599;-75
2022/02/01 04:08:31;;;;;;;;;;;3.90;99.90;;;;;;5020775;28;20012;-75
2022/02/01 04:10:58;;;;;;;;;;;3.90;99.90;;;;;;5020080;28;19925;-74
2022/02/01 04:13:24;;;;;;;;;;;3.90;99.90;;;;;;5020576;28;20036;-74
2022/02/01 04:15:51;;;;;;;;;;;3.90;99.90;;;;;;5019330;28;19925;-73
2022/02/01 04:18:19;;;;;;;;;;;3.90;99.90;;;;;;5017170;28;19976;-75
2022/02/01 04:20:45;;;;;;;;;;;4.00;99.90;;;;;;5023471;28;19926;-74
2022/02/01 04:23:12;;;;;;;;;;;3.90;99.90;;;;;;5012906;28;19976;-75
2022/02/01 04:25:39;;;;;;;;;;;3.90;99.90;;;;;;5021902;28;19925;-75
2022/02/01 04:28:05;;;;;;;;;;;4.00;99.90;;;;;;5019516;28;19925;-75
2022/02/01 04:30:32;;;;;;;;;;;4.00;99.90;;;;;;5018180;28;19925;-74
2022/02/01 04:32:59;;;;;;;;;;;4.00;99.90;;;;;;5017274;28;19925;-74
2022/02/01 04:35:28;;;;;;;;;;;4.00;99.90;;;;;;5023123;28;19924;-75
2022/02/01 04:37:55;;;;;;;;;;;4.10;99.90;;;;;;5019388;28;19947;-75
2022/02/01 04:40:22;;;;;;;;;;;4.10;99.90;;;;;;5018056;28;19925;-76
2022/02/01 04:42:49;;;;;;;;;;;4.10;99.90;;;;;;5020980;28;20379;-76
2022/02/01 04:45:18;;;;;;;;;;;4.10;99.90;;;;;;5018788;28;19925;-75
2022/02/01 04:47:48;;;;;;;;;;;4.20;99.90;;;;;;5024968;28;20000;-75
2022/02/01 04:50:15;;;;;;;;;;;4.20;99.90;;;;;;5017870;28;19930;-75
2022/02/01 04:52:45;;;;;;;;;;;4.20;99.90;;;;;;5023164;28;20012;-74
2022/02/01 04:55:12;;;;;;;;;;;4.20;99.90;;;;;;5022860;28;19948;-75
2022/02/01 04:57:49;;;;;;;;;;;4.20;99.90;;;;;;5036609;28;19925;-75
2022/02/01 05:00:15;;;;;;;;;;;4.20;99.90;;;;;;5020950;28;20569;-75
2022/02/01 05:02:42;;;;;;;;;;;4.20;99.90;;;;;;5023171;28;19925;-75
2022/02/01 05:05:09;;;;;;;;;;;4.20;99.90;;;;;;5022088;28;19932;-75
2022/02/01 05:07:35;;;;;;;;;;;4.20;99.90;;;;;;5029992;28;19951;-75
2022/02/01 05:10:04;;;;;;;;;;;4.20;99.90;;;;;;5023487;28;19931;-76
2022/02/01 05:12:36;;;;;;;;;;;4.20;99.90;;;;;;5024579;28;19928;-75
2022/02/01 05:15:06;;;;;;;;;;;4.20;99.90;;;;;;5024092;28;20296;-73
2022/02/01 05:17:34;;;;;;;;;;;4.10;99.90;;;;;;5023979;28;20003;-72
2022/02/01 05:20:17;;;;;;;;;;;4.10;99.90;;;;;;5014971;28;19941;-72
2022/02/01 05:22:45;;;;;;;;;;;4.00;99.90;;;;;;5012321;28;19933;-72
2022/02/01 05:25:14;;;;;;;;;;;4.00;99.90;;;;;;5014728;28;19925;-72
2022/02/01 05:27:41;;;;;;;;;;;3.90;99.90;;;;;;5033324;28;19933;-71
2022/02/01 05:30:09;;;;;;;;;;;3.90;99.90;;;;;;5021550;28;19947;-71
2022/02/01 05:32:35;;;;;;;;;;;3.80;99.90;;;;;;5015763;28;19932;-72
2022/02/01 05:35:02;;;;;;;;;;;3.70;99.90;;;;;;5032081;28;20020;-73
2022/02/01 05:37:28;;;;;;;;;;;3.70;99.90;;;;;;5032787;28;19945;-72
2022/02/01 05:39:57;;;;;;;;;;;3.60;99.90;;;;;;5024610;28;20303;-72
2022/02/01 05:42:36;;;;;;;;;;;3.60;99.90;;;;;;5019409;28;19972;-72
2022/02/01 05:45:02;;;;;;;;;;;3.60;99.90;;;;;;5028854;28;19933;-73
2022/02/01 05:47:29;;;;;;;;;;;3.60;99.90;;;;;;5030474;28;19925;-73
2022/02/01 05:49:56;;;;;;;;;;;3.60;99.90;;;;;;5021609;28;20015;-73
2022/02/01 05:52:22;;;;;;;;;;;3.50;99.90;;;;;;5018950;28;19926;-73
2022/02/01 05:54:49;;;;;;;;;;;3.50;99.90;;;;;;5025030;28;20315;-75
2022/02/01 05:57:16;;;;;;;;;;;3.50;99.90;;;;;;5033057;28;19930;-73
2022/02/01 05:59:44;;;;;;;;;;;3.50;99.90;;;;;;5026590;28;20349;-72
2022/02/01 06:02:10;;;;;;;;;;;3.50;99.90;;;;;;5017148;28;19931;-73
2022/02/01 06:04:37;;;;;;;;;;;3.50;99.90;;;;;;5021501;28;19941;-73
2022/02/01 06:07:04;;;;;;;;;;;3.50;99.90;;;;;;5030825;28;19925;-73
2022/02/01 06:09:30;;;;;;;;;;;3.60;99.90;;;;;;5025068;28;20394;-74
2022/02/01 06:11:57;;;;;;;;;;;3.60;99.90;;;;;;5026857;28;19932;-73
2022/02/01 06:14:24;;;;;;;;;;;3.60;99.90;;;;;;5022351;28;19925;-72
2022/02/01 06:16:52;;;;;;;;;;;3.60;99.90;;;;;;5026600;28;20156;-74
2022/02/01 06:19:18;;;;;;;;;;;3.60;99.90;;;;;;5024969;28;19929;-74
2022/02/01 06:21:45;;;;;;;;;;;3.60;99.90;;;;;;5026952;28;19925;-72
2022/02/01 06:24:16;;;;;;;;;;;3.60;99.90;;;;;;5029881;28;20004;-73
2022/02/01 06:26:43;;;;;;;;;;;3.70;99.90;;;;;;5030830;28;19933;-73
2022/02/01 06:29:10;;;;;;;;;;;3.70;99.90;;;;;;5028952;28;20306;-72
2022/02/01 06:31:36;;;;;;;;;;;3.70;99.90;;;;;;5028142;28;19932;-73
2022/02/01 06:34:04;;;;;;;;;;;3.70;99.90;;;;;;5033455;28;19935;-74
2022/02/01 06:36:31;;;;;;;;;;;3.70;99.90;;;;;;5021176;28;19933;-73
2022/02/01 06:38:58;;;;;;;;;;;3.70;99.90;;;;;;5025158;28;19925;-72
2022/02/01 06:41:24;;;;;;;;;;;3.70;99.90;;;;;;5025953;28;20019;-73
2022/02/01 06:43:51;;;;;;;;;;;3.80;99.90;;;;;;5024389;28;19945;-73
2022/02/01 06:46:19;;;;;;;;;;;3.80;99.90;;;;;;5009524;28;19945;-72
2022/02/01 06:48:45;;;;;;;;;;;3.80;99.90;;;;;;5010031;28;20044;-73
2022/02/01 06:51:17;;;;;;;;;;;3.80;99.90;;;;;;5007977;28;19933;-72
2022/02/01 06:53:46;;;;;;;;;;;3.80;99.90;;;;;;5008511;28;19933;-71
2022/02/01 06:56:19;;;;;;;;;;;3.80;99.90;;;;;;5003845;28;19953;-72
2022/02/01 06:58:46;;;;;;;;;;;3.90;99.90;;;;;;5007674;28;19979;-71
2022/02/01 07:01:12;;;;;;;;;;;3.80;99.90;;;;;;5006890;28;19936;-71
2022/02/01 07:03:39;;;;;;;;;;;3.90;99.90;;;;;;5007597;28;20381;-72
2022/02/01 07:06:11;;;;;;;;;;;3.90;99.90;;;;;;5009060;28;19929;-72
2022/02/01 07:08:42;;;;;;;;;;;3.90;99.90;;;;;;5009135;28;19948;-73
2022/02/01 07:11:09;;;;;;;;;;;3.90;99.90;;;;;;5018946;28;20300;-72
2022/02/01 07:13:35;;;;;;;;;;;3.90;99.90;;;;;;5021442;28;19940;-74
2022/02/01 07:16:02;;;;;;;;;;;4.00;99.90;;;;;;5024289;28;19925;-72
2022/02/01 07:18:31;;;;;;;;;;;4.00;99.90;;;;;;5017877;28;20021;-72
2022/02/01 07:20:59;;;;;;;;;;;4.00;99.90;;;;;;5032426;28;20759;-73
2022/02/01 07:23:26;;;;;;;;;;;4.00;99.90;;;;;;5029633;28;19925;-73
2022/02/01 07:25:55;;;;;;;;;;;4.00;99.90;;;;;;5030074;28;19930;-74
2022/02/01 07:28:23;;;;;;;;;;;4.00;99.90;;;;;;5029692;28;20019;-72
2022/02/01 07:30:52;;;;;;;;;;;4.00;99.90;;;;;;5031535;28;19980;-71
2022/02/01 07:33:19;;;;;;;;;;;4.10;99.90;;;;;;5027186;28;19925;-70
2022/02/01 07:35:47;;;;;;;;;;;4.10;99.90;;;;;;5027502;28;20019;-70
2022/02/01 07:38:17;;;;;;;;;;;4.10;99.90;;;;;;5010280;28;19933;-69
2022/02/01 07:40:43;;;;;;;;;;;4.10;99.90;;;;;;5016438;28;19925;-69
2022/02/01 07:43:12;;;;;;;;;;;4.10;99.90;;;;;;5027544;28;20400;-69
2022/02/01 07:45:40;;;;;;;;;;;4.10;99.90;;;;;;5016777;28;20023;-69
2022/02/01 07:48:07;;;;;;;;;;;4.10;99.90;;;;;;5022731;28;20414;-69
2022/02/01 07:50:36;;;;;;;;;;;4.20;99.90;;;;;;5018456;28;19951;-70
2022/02/01 07:53:03;;;;;;;;;;;4.20;99.90;;;;;;5026297;28;19994;-69
2022/02/01 07:55:30;;;;;;;;;;;4.20;99.90;;;;;;5012322;28;19925;-69
2022/02/01 07:57:57;;;;;;;;;;;4.20;99.90;;;;;;5024401;28;19951;-69
2022/02/01 08:00:25;;;;;;;;;;;4.20;99.90;;;;;;5028812;28;19947;-69
2022/02/01 08:02:55;;;;;;;;;;;4.30;99.90;;;;;;5004836;28;20758;-69
2022/02/01 08:05:24;;;;;;;;;;;4.30;99.90;;;;;;5013194;28;19929;-69
2022/02/01 08:07:51;;;;;;;;;;;4.40;99.90;;;;;;5016201;28;19965;-69
2022/02/01 08:10:18;;;;;;;;;;;4.40;99.90;;;;;;5017241;28;19930;-69
2022/02/01 08:18:30;;;;;;;;;;;4.50;99.90;;;;;;5004550;28;20016;-70
2022/02/01 08:21:00;;;;;;;;;;;4.50;99.90;;;;;;5020761;28;19925;-69
2022/02/01 08:23:27;;;;;;;;;;;4.50;99.90;;;;;;5013960;28;19925;-70
2022/02/01 08:25:54;;;;;;;;;;;4.60;99.90;;;;;;5009244;28;19932;-68
2022/02/01 08:28:22;;;;;;;;;;;4.60;99.90;;;;;;5019850;28;20008;-69
2022/02/01 08:30:51;;;;;;;;;;;4.60;99.90;;;;;;5017184;28;19929;-68
2022/02/01 08:33:19;;;;;;;;;;;4.70;99.90;;;;;;5013626;28;19925;-70
2022/02/01 08:35:46;;;;;;;;;;;4.70;99.90;;;;;;5013502;28;19929;-71
2022/02/01 08:38:13;;;;;;;;;;;4.70;99.90;;;;;;5016695;28;19925;-71
2022/02/01 08:40:39;;;;;;;;;;;4.80;99.90;;;;;;5012242;28;19975;-71
2022/02/01 08:43:06;;;;;;;;;;;4.80;99.90;;;;;;5013068;28;20924;-71
2022/02/01 08:45:33;;;;;;;;;;;4.80;99.90;;;;;;5010856;28;20024;-72
2022/02/01 08:48:01;;;;;;;;;;;4.80;99.90;;;;;;5013766;28;19926;-69
2022/02/01 08:50:31;;;;;;;;;;;4.80;99.90;;;;;;5012297;28;19925;-69
2022/02/01 08:53:09;;;;;;;;;;;4.90;99.90;;;;;;5012118;28;19933;-70
2022/02/01 08:55:38;;;;;;;;;;;4.90;99.90;;;;;;5008396;28;19937;-70
2022/02/01 08:58:05;;;;;;;;;;;4.90;99.90;;;;;;5015233;28;19929;-70
2022/02/01 09:00:33;;;;;;;;;;;5.00;99.90;;;;;;5011769;28;20001;-70
2022/02/01 09:03:03;;;;;;;;;;;5.10;99.90;;;;;;5015661;28;19957;-71
2022/02/01 09:05:30;;;;;;;;;;;5.10;99.90;;;;;;5023208;28;19929;-70
2022/02/01 09:07:58;;;;;;;;;;;5.10;99.90;;;;;;5020027;28;19981;-70
2022/02/01 09:10:25;;;;;;;;;;;5.20;99.90;;;;;;5019734;28;19933;-70
2022/02/01 09:12:52;;;;;;;;;;;5.20;99.90;;;;;;5024957;28;19925;-70
2022/02/01 09:15:18;;;;;;;;;;;5.20;99.90;;;;;;5024962;28;19937;-70
2022/02/01 09:17:45;;;;;;;;;;;5.20;99.90;;;;;;5018317;28;19929;-71
2022/02/01 09:20:13;;;;;;;;;;;5.30;99.90;;;;;;5020642;28;19929;-73
2022/02/01 09:22:40;;;;;;;;;;;5.30;99.90;;;;;;5022821;28;19934;-71
2022/02/01 09:25:07;;;;;;;;;;;5.30;99.90;;;;;;5022351;28;19929;-69
2022/02/01 09:27:34;;;;;;;;;;;5.30;99.90;;;;;;5018291;28;19925;-70
2022/02/01 09:30:00;;;;;;;;;;;5.40;99.90;;;;;;5019215;28;19940;-73
2022/02/01 09:32:27;;;;;;;;;;;5.40;99.90;;;;;;5018982;28;19926;-71
2022/02/01 09:34:54;;;;;;;;;;;5.40;99.90;;;;;;5015351;28;21051;-70
2022/02/01 09:37:23;;;;;;;;;;;5.50;99.90;;;;;;5010901;28;19935;-71
2022/02/01 09:39:50;;;;;;;;;;;5.50;99.90;;;;;;5018441;28;19968;-70
2022/02/01 09:42:16;;;;;;;;;;;5.60;99.90;;;;;;5015843;28;20391;-71
2022/02/01 09:44:44;;;;;;;;;;;5.60;99.90;;;;;;5015720;28;20425;-68
2022/02/01 09:47:11;;;;;;;;;;;5.60;99.90;;;;;;5017180;28;19937;-73
2022/02/01 09:49:38;;;;;;;;;;;5.70;99.90;;;;;;5014431;28;19930;-70
2022/02/01 09:52:05;;;;;;;;;;;5.70;99.90;;;;;;5020888;28;19979;-70
2022/02/01 09:54:34;;;;;;;;;;;5.80;99.90;;;;;;5022963;28;19940;-70
2022/02/01 09:57:05;;;;;;;;;;;5.80;99.90;;;;;;5017513;28;19980;-71
2022/02/01 09:59:33;;;;;;;;;;;5.90;99.90;;;;;;5015304;28;19925;-73
2022/02/01 10:02:04;;;;;;;;;;;6.00;99.90;;;;;;5018532;28;19992;-73
2022/02/01 10:04:31;;;;;;;;;;;6.10;99.90;;;;;;5014238;28;19926;-72
2022/02/01 10:07:07;;;;;;;;;;;6.10;99.90;;;;;;5021912;28;19933;-71
2022/02/01 10:09:35;;;;;;;;;;;6.10;99.90;;;;;;5018677;28;20020;-70
2022/02/01 10:12:02;;;;;;;;;;;6.20;99.90;;;;;;5014407;28;19929;-70
2022/02/01 10:14:39;;;;;;;;;;;6.20;99.90;;;;;;5016580;28;19932;-71
2022/02/01 10:17:08;;;;;;;;;;;6.20;99.90;;;;;;5021643;28;19929;-71
2022/02/01 10:19:37;;;;;;;;;;;6.30;99.90;;;;;;5015654;28;20331;-70
2022/02/01 10:22:04;;;;;;;;;;;6.30;99.90;;;;;;5019412;28;20265;-70
2022/02/01 10:24:33;;;;;;;;;;;6.40;99.90;;;;;;5014056;28;20424;-70
2022/02/01 10:27:08;;;;;;;;;;;6.40;99.90;;;;;;5017514;28;19933;-71
2022/02/01 10:29:35;;;;;;;;;;;6.40;99.90;;;;;;5020864;28;19925;-71
2022/02/01 10:32:12;;;;;;;;;;;6.40;99.90;;;;;;5022517;28;19961;-71
2022/02/01 10:34:44;;;;;;;;;;;6.40;99.90;;;;;;5020326;28;20006;-70
2022/02/01 10:37:18;;;;;;;;;;;6.40;99.90;;;;;;5020331;28;19936;-71
2022/02/01 10:39:46;;;;;;;;;;;6.50;99.90;;;;;;5021503;28;19925;-70
2022/02/01 10:42:16;;;;;;;;;;;6.60;99.90;;;;;;5019927;28;20455;-75
2022/02/01 10:44:43;;;;;;;;;;;6.60;99.90;;;;;;5015956;28;19931;-70
2022/02/01 10:47:12;;;;;;;;;;;6.60;99.90;;;;;;5017047;28;19932;-73
2022/02/01 10:49:39;;;;;;;;;;;6.60;99.90;;;;;;5022124;28;19925;-69
2022/02/01 10:52:07;;;;;;;;;;;6.70;99.90;;;;;;5024281;28;20008;-69
2022/02/01 10:54:35;;;;;;;;;;;6.70;99.90;;;;;;5018938;28;19933;-72
2022/02/01 10:57:02;;;;;;;;;;;6.70;99.90;;;;;;5015768;28;19929;-70
2022/02/01 10:59:30;;;;;;;;;;;6.70;99.90;;;;;;5022980;28;19933;-70
2022/02/01 11:01:57;;;;;;;;;;;6.70;99.90;;;;;;5022953;28;19979;-73
2022/02/01 11:04:25;;;;;;;;;;;6.80;99.90;;;;;;5015984;28;19941;-70
2022/02/01 11:06:53;;;;;;;;;;;6.90;99.90;;;;;;5018832;28;19931;-70
2022/02/01 11:09:21;;;;;;;;;;;6.90;99.90;;;;;;5016900;28;19925;-72
2022/02/01 11:11:51;;;;;;;;;;;7.00;99.90;;;;;;5021504;28;19933;-72
2022/02/01 11:14:21;;;;;;;;;;;7.00;99.90;;;;;;5020329;28;19932;-72
2022/02/01 11:16:49;;;;;;;;;;;7.00;99.90;;;;;;5013044;28;19930;-72
2022/02/01 11:19:16;;;;;;;;;;;7.10;99.90;;;;;;5015384;28;19948;-70
2022/02/01 11:21:43;;;;;;;;;;;7.10;99.90;;;;;;5018217;28;20025;-72
2022/02/01 11:24:20;;;;;;;;;;;7.10;99.90;;;;;;5021064;28;20364;-72
2022/02/01 11:26:51;;;;;;;;;;;7.10;99.90;;;;;;5015356;28;20336;-73
2022/02/01 11:29:32;;;;;;;;;;;7.10;99.90;;;;;;5025461;28;19925;-72
2022/02/01 11:32:01;;;;;;;;;;;7.20;99.90;;;;;;5009462;28;19925;-76
2022/02/01 11:34:29;;;;;;;;;;;7.20;99.90;;;;;;5018612;28;19939;-75
2022/02/01 11:36:57;;;;;;;;;;;7.20;99.90;;;;;;5016192;28;19925;-75
2022/02/01 11:39:24;;;;;;;;;;;7.20;99.90;;;;;;5021130;28;19933;-78
2022/02/01 11:41:53;;;;;;;;;;;7.30;99.90;;;;;;5025878;28;20019;-76
2022/02/01 11:44:26;;;;;;;;;;;7.40;99.90;;;;;;5018960;28;19939;-80
2022/02/01 11:47:08;;;;;;;;;;;7.40;99.90;;;;;;5023617;28;20351;-76
2022/02/01 11:49:35;;;;;;;;;;;7.50;99.90;;;;;;5016333;28;19939;-74
2022/02/01 11:52:08;;;;;;;;;;;7.50;99.90;;;;;;5019583;28;19976;-74
2022/02/01 11:54:35;;;;;;;;;;;7.50;99.90;;;;;;5017598;28;19931;-74
2022/02/01 11:57:10;;;;;;;;;;;7.50;99.90;;;;;;5011671;28;19957;-73
2022/02/01 11:59:37;;;;;;;;;;;7.50;99.90;;;;;;5019461;28;19929;-74
2022/02/01 12:02:06;;;;;;;;;;;7.60;99.90;;;;;;5013273;28;20361;-74
2022/02/01 12:04:42;;;;;;;;;;;7.60;99.90;;;;;;5015595;28;19926;-74
2022/02/01 12:07:09;;;;;;;;;;;7.60;99.90;;;;;;5019064;28;20303;-74
2022/02/01 12:09:40;;;;;;;;;;;7.70;99.90;;;;;;5012258;28;20023;-74
2022/02/01 12:12:07;;;;;;;;;;;7.80;99.90;;;;;;5014083;28;21713;-75
2022/02/01 12:14:34;;;;;;;;;;;7.80;99.90;;;;;;5015960;28;19933;-74
2022/02/01 12:17:00;;;;;;;;;;;7.80;99.90;;;;;;5014068;28;19929;-74
2022/02/01 12:19:28;;;;;;;;;;;7.90;99.90;;;;;;5020758;28;19932;-75
2022/02/01 12:22:02;;;;;;;;;;;8.00;99.90;;;;;;5022860;28;19937;-75
2022/02/01 12:24:28;;;;;;;;;;;8.00;99.90;;;;;;5013217;28;20550;-75
2022/02/01 12:26:55;;;;;;;;;;;8.00;99.90;;;;;;5017478;28;19925;-74
2022/02/01 12:29:22;;;;;;;;;;;8.10;99.90;;;;;;5019445;28;20366;-74
2022/02/01 12:31:52;;;;;;;;;;;8.10;99.90;;;;;;5013202;28;19936;-74
2022/02/01 12:34:19;;;;;;;;;;;8.20;99.90;;;;;;5016116;28;19926;-79
2022/02/01 12:36:50;;;;;;;;;;;8.20;99.90;;;;;;5020143;28;19925;-75
2022/02/01 12:39:22;;;;;;;;;;;8.30;99.90;;;;;;5019065;28;19964;-75
2022/02/01 12:41:55;;;;;;;;;;;8.40;99.90;;;;;;5016890;28;19952;-74
2022/02/01 12:47:07;;;;;;;;;;;8.40;99.90;;;;;;5023071;28;20029;-75
2022/02/01 12:49:35;;;;;;;;;;;8.50;99.90;;;;;;5018904;28;19932;-74
2022/02/01 12:52:02;;;;;;;;;;;8.50;99.90;;;;;;5020711;28;19930;-75
2022/02/01 12:54:33;;;;;;;;;;;8.60;99.90;;;;;;5013988;28;19933;-74
2022/02/01 12:57:09;;;;;;;;;;;8.60;99.90;;;;;;5018555;28;19967;-74
2022/02/01 12:59:39;;;;;;;;;;;8.60;99.90;;;;;;5010687;28;20009;-74
2022/02/01 13:02:07;;;;;;;;;;;8.70;99.90;;;;;;5016177;28;19933;-74
2022/02/01 13:04:33;;;;;;;;;;;8.70;99.90;;;;;;5019172;28;19933;-75
2022/02/01 13:07:01;;;;;;;;;;;8.70;99.90;;;;;;5016888;28;20040;-75
2022/02/01 13:15:13;;;;;;;;;;;9.00;99.90;;;;;;5014710;28;20464;-75
2022/02/01 13:17:47;;;;;;;;;;;9.20;99.90;;;;;;5011631;28;20024;-75
2022/02/01 13:20:19;;;;;;;;;;;9.30;99.90;;;;;;5010877;28;19933;-75
2022/02/01 13:22:50;;;;;;;;;;;9.30;99.90;;;;;;5015055;28;19969;-75
2022/02/01 13:25:26;;;;;;;;;;;9.40;99.90;;;;;;5014871;28;19925;-69
2022/02/01 13:27:57;;;;;;;;;;;9.50;99.90;;;;;;5024929;28;19932;-77
2022/02/01 13:30:23;;;;;;;;;;;9.70;99.90;;;;;;5016604;28;20786;-76
2022/02/01 13:32:51;;;;;;;;;;;9.70;99.90;;;;;;5016162;28;19926;-77
2022/02/01 13:35:18;;;;;;;;;;;9.80;99.90;;;;;;5018507;28;19925;-76
2022/02/01 13:37:45;;;;;;;;;;;9.70;99.90;;;;;;5016497;28;19936;-75
2022/02/01 13:40:23;;;;;;;;;;;9.80;99.90;;;;;;5015245;28;20004;-76
2022/02/01 13:42:49;;;;;;;;;;;9.80;99.90;;;;;;5008906;28;19929;-74
2022/02/01 13:45:16;;;;;;;;;;;9.80;99.90;;;;;;5018610;28;19925;-75
2022/02/01 13:47:44;;;;;;;;;;;9.80;99.90;;;;;;5019085;28;19925;-75
2022/02/01 13:50:12;;;;;;;;;;;9.70;99.90;;;;;;5018173;28;19925;-75
2022/02/01 13:52:39;;;;;;;;;;;9.70;99.90;;;;;;5013932;28;19929;-74
2022/02/01 13:55:16;;;;;;;;;;;9.70;99.90;;;;;;5018872;28;19932;-75
2022/02/01 13:57:44;;;;;;;;;;;9.60;99.90;;;;;;5026999;28;19977;-75
2022/02/01 14:00:12;;;;;;;;;;;9.60;99.90;;;;;;5020193;28;19925;-73
2022/02/01 14:02:45;;;;;;;;;;;9.60;99.90;;;;;;5019007;28;20024;-73
2022/02/01 14:05:22;;;;;;;;;;;9.60;99.90;;;;;;5017922;28;20320;-73
2022/02/01 14:08:06;;;;;;;;;;;9.70;99.90;;;;;;5015131;28;20016;-74
2022/02/01 14:10:43;;;;;;;;;;;9.70;99.90;;;;;;5020454;28;19926;-73
2022/02/01 14:27:16;;;;;;;;;;;9.80;99.90;;;;;;5017218;28;19972;-76
2022/02/01 14:35:13;;;;;;;;;;;9.80;99.90;;;;;;5015143;28;19980;-75
2022/02/01 14:37:45;;;;;;;;;;;9.80;99.90;;;;;;5016657;28;19929;-75
2022/02/01 14:45:42;;;;;;;;;;;9.70;99.90;;;;;;5017623;28;19941;-75
2022/02/01 14:48:09;;;;;;;;;;;9.70;99.90;;;;;;5021119;28;20299;-75
2022/02/01 14:50:36;;;;;;;;;;;9.70;99.90;;;;;;5016790;28;20087;-74
2022/02/01 14:53:02;;;;;;;;;;;9.70;99.90;;;;;;5013890;28;20020;-75
2022/02/01 14:55:35;;;;;;;;;;;9.80;99.90;;;;;;5022489;28;19937;-75
2022/02/01 15:03:53;;;;;;;;;;;9.60;99.90;;;;;;5010025;28;20410;-76
2022/02/01 15:12:20;;;;;;;;;;;9.60;99.90;;;;;;5022925;28;19939;-75
2022/02/01 15:14:47;;;;;;;;;;;9.50;99.90;;;;;;5007160;28;19963;-72
2022/02/01 15:17:16;;;;;;;;;;;9.60;99.90;;;;;;5004367;28;19965;-73
2022/02/01 15:19:44;;;;;;;;;;;9.60;99.90;;;;;;5003214;28;19937;-73
2022/02/01 15:22:10;;;;;;;;;;;9.60;99.90;;;;;;5002220;28;20352;-73
2022/02/01 15:24:37;;;;;;;;;;;9.60;99.90;;;;;;5007458;28;19940;-75
2022/02/01 15:27:04;;;;;;;;;;;9.60;99.90;;;;;;5006275;28;19929;-74
2022/02/01 15:29:31;;;;;;;;;;;9.60;99.90;;;;;;5003498;28;20643;-74
2022/02/01 15:31:58;;;;;;;;;;;9.60;99.90;;;;;;5004955;28;20043;-73
2022/02/01 15:34:30;;;;;;;;;;;9.60;99.90;;;;;;5011603;28;19932;-71
2022/02/01 15:37:01;;;;;;;;;;;9.60;99.90;;;;;;5003783;28;19933;-74
2022/02/01 15:56:48;;;;;;;;;;;9.40;99.90;;;;;;5013998;28;19933;-75
2022/02/01 15:59:19;;;;;;;;;;;9.40;99.90;;;;;;4998923;28;21929;-76
2022/02/01 16:01:52;;;;;;;;;;;9.50;99.90;;;;;;5015616;28;19936;-75
2022/02/01 16:04:20;;;;;;;;;;;9.60;99.90;;;;;;5016167;28;19929;-76
2022/02/01 16:06:51;;;;;;;;;;;9.70;99.90;;;;;;5013246;28;20023;-75
2022/02/01 16:09:24;;;;;;;;;;;9.70;99.90;;;;;;5018015;28;20364;-77
2022/02/01 16:11:52;;;;;;;;;;;9.80;99.90;;;;;;5016945;28;19929;-76
2022/02/01 16:14:18;;;;;;;;;;;9.90;99.90;;;;;;5022089;28;19925;-77
2022/02/01 16:16:46;;;;;;;;;;;9.90;99.90;;;;;;5012039;28;19931;-76
2022/02/01 16:19:15;;;;;;;;;;;10.00;99.90;;;;;;5017448;28;19979;-80
2022/02/01 16:21:42;;;;;;;;;;;10.00;99.90;;;;;;5019086;28;19929;-77
2022/02/01 16:24:10;;;;;;;;;;;10.10;99.90;;;;;;5022843;28;20403;-76
2022/02/01 16:26:38;;;;;;;;;;;10.10;99.90;;;;;;5018420;28;20308;-75
2022/02/01 16:29:05;;;;;;;;;;;10.10;99.90;;;;;;5015906;28;19933;-77
2022/02/01 16:31:33;;;;;;;;;;;10.10;99.90;;;;;;5014563;28;19939;-79
2022/02/01 16:34:00;;;;;;;;;;;10.00;99.90;;;;;;5016129;28;19932;-77
2022/02/01 16:36:28;;;;;;;;;;;10.00;99.90;;;;;;5016612;28;19959;-78